createdAt,value
2019-05-18T00:00:39.817Z,100905.42
2019-05-18T00:03:24.294Z,100877.45
2019-05-18T00:06:08.714Z,100882.08
2019-05-18T00:08:52.996Z,100904.84
2019-05-18T00:11:36.854Z,100873.97
2019-05-18T00:14:20.681Z,100878.63
2019-05-18T00:17:07.902Z,100874.18
2019-05-18T00:19:52.907Z,100862.98
2019-05-18T00:22:37.358Z,100871.41
2019-05-18T00:25:22.009Z,100873.63
2019-05-18T00:28:06.284Z,100874.95
2019-05-18T00:30:51.294Z,100897.41
2019-05-18T00:36:45.760Z,100871.75
2019-05-18T00:39:29.505Z,100864.88
2019-05-18T00:42:13.397Z,100865.64
2019-05-18T00:44:57.901Z,100865.48
2019-05-18T00:47:42.512Z,100887.28
2019-05-18T00:53:28.804Z,100883.17
2019-05-18T00:56:13.055Z,100865.31
2019-05-18T00:58:58.907Z,100863.11
2019-05-18T01:01:42.956Z,100886.67
2019-05-18T01:04:29.394Z,100861.30
2019-05-18T01:07:13.641Z,100890.98
2019-05-18T01:09:59.770Z,100867.61
2019-05-18T01:12:43.690Z,100865.36
2019-05-18T01:15:27.890Z,100883.23
2019-05-18T01:18:12.161Z,100864.16
2019-05-18T01:20:56.828Z,100863.62
2019-05-18T01:23:41.081Z,100866.74
2019-05-18T01:26:24.738Z,100886.77
2019-05-18T01:29:08.503Z,100867.06
2019-05-18T01:31:54.331Z,100861.22
2019-05-18T01:34:38.452Z,100880.13
2019-05-18T01:37:24.526Z,100855.37
2019-05-18T01:43:09.755Z,100856.37
2019-05-18T01:45:54.458Z,100849.67
2019-05-18T01:48:39.017Z,100873.47
2019-05-18T01:51:25.297Z,100842.55
2019-05-18T01:54:08.843Z,100868.27
2019-05-18T01:56:54.397Z,100840.15
2019-05-18T01:59:38.483Z,100866.75
2019-05-18T02:02:22.154Z,100860.28
2019-05-18T02:05:06.284Z,100858.44
2019-05-18T02:07:51.783Z,100826.77
2019-05-18T02:10:36.359Z,100857.64
2019-05-18T02:13:20.578Z,100831.48
2019-05-18T02:16:04.254Z,100840.31
2019-05-18T02:18:48.768Z,100865.09
2019-05-18T02:21:33.255Z,100835.33
2019-05-18T02:24:17.013Z,100861.00
2019-05-18T02:27:01.146Z,100840.00
2019-05-18T02:29:44.965Z,100862.61
2019-05-18T02:32:29.553Z,100862.03
2019-05-18T02:35:13.310Z,100862.52
2019-05-18T02:38:14.348Z,100860.27
2019-05-18T02:40:58.079Z,100849.12
2019-05-18T02:43:42.649Z,100853.41
2019-05-18T02:46:26.448Z,100855.09
2019-05-18T02:49:10.660Z,100851.97
2019-05-18T02:51:55.955Z,100853.47
2019-05-18T02:54:40.328Z,100850.87
2019-05-18T02:57:24.304Z,100821.78
2019-05-18T03:00:09.095Z,100822.73
2019-05-18T03:02:54.418Z,100817.45
2019-05-18T03:05:38.679Z,100817.73
2019-05-18T03:08:22.468Z,100812.67
2019-05-18T03:11:07.013Z,100840.24
2019-05-18T03:13:50.725Z,100840.08
2019-05-18T03:16:34.968Z,100838.27
2019-05-18T03:19:19.191Z,100836.87
2019-05-18T03:22:03.212Z,100837.85
2019-05-18T03:24:47.014Z,100810.93
2019-05-18T03:27:33.107Z,100819.31
2019-05-18T03:30:17.379Z,100820.02
2019-05-18T03:33:01.410Z,100817.16
2019-05-18T03:35:45.789Z,100838.80
2019-05-18T03:38:30.720Z,100844.14
2019-05-18T03:41:14.735Z,100822.39
2019-05-18T03:43:59.069Z,100820.87
2019-05-18T03:46:43.540Z,100846.61
2019-05-18T03:49:28.036Z,100827.93
2019-05-18T03:52:12.423Z,100828.07
2019-05-18T03:54:56.989Z,100847.98
2019-05-18T03:57:41.173Z,100822.41
2019-05-18T04:00:24.824Z,100829.70
2019-05-18T04:03:08.340Z,100822.23
2019-05-18T04:05:51.942Z,100829.73
2019-05-18T04:08:36.378Z,100832.88
2019-05-18T04:11:20.521Z,100845.33
2019-05-18T04:14:08.304Z,100820.25
2019-05-18T04:16:52.179Z,100826.02
2019-05-18T04:19:46.524Z,100822.48
2019-05-18T04:22:22.247Z,100819.16
2019-05-18T04:24:54.861Z,100842.61
2019-05-18T04:27:38.465Z,100823.85
2019-05-18T04:30:23.107Z,100807.88
2019-05-18T04:33:06.927Z,100819.03
2019-05-18T04:35:50.709Z,100809.48
2019-05-18T04:38:35.196Z,100807.27
2019-05-18T04:41:18.807Z,100814.05
2019-05-18T04:44:02.684Z,100836.00
2019-05-18T04:46:48.183Z,100818.66
2019-05-18T04:49:32.338Z,100811.19
2019-05-18T04:52:16.013Z,100814.27
2019-05-18T04:55:00.188Z,100842.22
2019-05-18T04:57:43.991Z,100842.12
2019-05-18T05:00:28.292Z,100815.08
2019-05-18T05:03:12.920Z,100842.36
2019-05-18T05:05:56.714Z,100820.36
2019-05-18T05:08:40.616Z,100840.19
2019-05-18T05:11:24.222Z,100839.48
2019-05-18T05:14:07.976Z,100811.96
2019-05-18T05:16:52.673Z,100814.19
2019-05-18T05:19:38.621Z,100836.03
2019-05-18T05:22:22.682Z,100815.11
2019-05-18T05:25:07.973Z,100818.81
2019-05-18T05:27:51.872Z,100808.10
2019-05-18T05:30:37.421Z,100838.92
2019-05-18T05:33:21.866Z,100807.20
2019-05-18T05:36:08.104Z,100811.02
2019-05-18T05:38:52.004Z,100811.73
2019-05-18T05:41:36.125Z,100825.34
2019-05-18T05:44:26.421Z,100830.86
2019-05-18T05:47:10.037Z,100809.31
2019-05-18T05:49:54.536Z,100827.47
2019-05-18T05:52:38.483Z,100800.42
2019-05-18T05:55:22.056Z,100801.91
2019-05-18T05:58:05.696Z,100830.73
2019-05-18T06:00:49.945Z,100803.18
2019-05-18T06:03:33.437Z,100795.56
2019-05-18T06:06:18.181Z,100820.20
2019-05-18T06:09:05.836Z,100820.55
2019-05-18T06:11:49.894Z,100798.79
2019-05-18T06:14:34.297Z,100813.89
2019-05-18T06:17:18.653Z,100792.47
2019-05-18T06:20:04.233Z,100821.52
2019-05-18T06:22:49.457Z,100802.11
2019-05-18T06:25:34.488Z,100804.59
2019-05-18T06:28:18.870Z,100819.16
2019-05-18T06:31:02.811Z,100802.98
2019-05-18T06:33:47.683Z,100797.83
2019-05-18T06:36:32.049Z,100813.05
2019-05-18T06:39:17.362Z,100829.00
2019-05-18T06:42:01.463Z,100805.52
2019-05-18T06:44:45.974Z,100825.00
2019-05-18T06:47:30.356Z,100820.59
2019-05-18T06:50:14.561Z,100825.69
2019-05-18T06:53:04.392Z,100804.77
2019-05-18T06:55:49.064Z,100804.19
2019-05-18T06:58:35.132Z,100821.18
2019-05-18T07:01:19.513Z,100820.81
2019-05-18T07:04:05.884Z,100805.36
2019-05-18T07:06:49.819Z,100823.45
2019-05-18T07:09:40.191Z,100823.83
2019-05-18T07:12:24.087Z,100820.94
2019-05-18T07:15:08.234Z,100804.35
2019-05-18T07:17:52.636Z,100806.16
2019-05-18T07:20:36.425Z,100822.71
2019-05-18T07:23:21.197Z,100802.64
2019-05-18T07:26:05.880Z,100816.98
2019-05-18T07:28:50.479Z,100820.75
2019-05-18T07:31:34.017Z,100802.23
2019-05-18T07:34:18.135Z,100816.73
2019-05-18T07:37:02.249Z,100792.96
2019-05-18T07:39:46.346Z,100797.88
2019-05-18T07:42:30.505Z,100793.73
2019-05-18T07:45:16.293Z,100796.95
2019-05-18T07:48:00.211Z,100798.55
2019-05-18T07:50:44.214Z,100814.44
2019-05-18T07:53:28.744Z,100794.55
2019-05-18T07:56:12.456Z,100804.21
2019-05-18T07:58:56.061Z,100806.00
2019-05-18T08:01:41.478Z,100800.03
2019-05-18T08:04:25.022Z,100804.69
2019-05-18T08:07:09.082Z,100784.89
2019-05-18T08:09:54.804Z,100784.25
2019-05-18T08:12:38.998Z,100802.46
2019-05-18T08:15:23.677Z,100780.10
2019-05-18T08:18:08.336Z,100780.64
2019-05-18T08:20:52.251Z,100774.64
2019-05-18T08:23:36.326Z,100781.06
2019-05-18T08:26:20.223Z,100777.73
2019-05-18T08:29:04.811Z,100791.74
2019-05-18T08:31:48.413Z,100771.42
2019-05-18T08:34:32.787Z,100768.91
2019-05-18T08:37:17.179Z,100772.02
2019-05-18T08:40:00.743Z,100770.92
2019-05-18T08:42:44.935Z,100794.56
2019-05-18T08:45:28.600Z,100775.73
2019-05-18T08:48:12.387Z,100791.79
2019-05-18T08:50:57.182Z,100769.86
2019-05-18T08:53:40.835Z,100780.64
2019-05-18T08:56:24.867Z,100785.33
2019-05-18T08:59:08.520Z,100768.16
2019-05-18T09:01:52.435Z,100787.19
2019-05-18T09:04:37.767Z,100779.20
2019-05-18T09:07:22.404Z,100781.77
2019-05-18T09:10:07.131Z,100772.48
2019-05-18T09:12:39.553Z,100792.00
2019-05-18T09:15:25.481Z,100772.34
2019-05-18T09:18:09.996Z,100786.31
2019-05-18T09:20:54.114Z,100763.93
2019-05-18T09:23:37.859Z,100758.38
2019-05-18T09:26:23.397Z,100760.56
2019-05-18T09:31:51.991Z,100753.64
2019-05-18T09:34:35.789Z,100764.68
2019-05-18T09:37:20.426Z,100770.92
2019-05-18T09:40:06.050Z,100760.13
2019-05-18T09:42:49.888Z,100774.25
2019-05-18T09:45:33.809Z,100778.22
2019-05-18T09:48:18.095Z,100764.14
2019-05-18T09:51:02.927Z,100744.88
2019-05-18T09:53:35.290Z,100768.72
2019-05-18T09:56:21.105Z,100758.81
2019-05-18T09:59:04.984Z,100732.15
2019-05-18T10:01:49.083Z,100748.13
2019-05-18T10:04:33.219Z,100730.77
2019-05-18T10:07:18.247Z,100750.92
2019-05-18T10:10:03.603Z,100744.53
2019-05-18T10:12:47.279Z,100733.25
2019-05-18T10:15:31.728Z,100749.41
2019-05-18T10:18:15.766Z,100750.22
2019-05-18T10:20:59.923Z,100746.89
2019-05-18T10:23:43.653Z,100728.20
2019-05-18T10:26:28.002Z,100733.77
2019-05-18T10:29:12.246Z,100720.74
2019-05-18T10:31:56.999Z,100714.61
2019-05-18T10:34:45.004Z,100742.20
2019-05-18T10:37:29.505Z,100734.19
2019-05-18T10:40:14.132Z,100717.19
2019-05-18T10:46:08.860Z,100722.59
2019-05-18T10:48:53.218Z,100702.82
2019-05-18T10:51:38.531Z,100711.31
2019-05-18T10:54:23.727Z,100702.14
2019-05-18T10:57:07.532Z,100707.71
2019-05-18T10:59:54.062Z,100701.95
2019-05-18T11:02:26.641Z,100714.67
2019-05-18T11:05:10.779Z,100686.73
2019-05-18T11:07:54.509Z,100682.27
2019-05-18T11:10:39.174Z,100674.72
2019-05-18T11:13:23.591Z,100705.85
2019-05-18T11:16:09.339Z,100704.97
2019-05-18T11:18:53.324Z,100688.20
2019-05-18T11:21:36.995Z,100682.00
2019-05-18T11:24:21.059Z,100691.64
2019-05-18T11:27:07.088Z,100705.13
2019-05-18T11:29:51.162Z,100700.00
2019-05-18T11:35:21.014Z,100680.48
2019-05-18T11:37:54.459Z,100688.14
2019-05-18T11:40:39.777Z,100681.42
2019-05-18T11:43:23.729Z,100664.55
2019-05-18T11:46:08.168Z,100656.11
2019-05-18T11:48:55.560Z,100680.20
2019-05-18T11:51:39.279Z,100657.30
2019-05-18T11:54:23.391Z,100670.00
2019-05-18T11:57:08.020Z,100664.19
2019-05-18T11:59:52.032Z,100665.13
2019-05-18T12:02:37.089Z,100680.39
2019-05-18T12:05:20.904Z,100680.55
2019-05-18T12:08:05.315Z,100669.89
2019-05-18T12:10:56.091Z,100675.16
2019-05-18T12:13:51.355Z,100653.33
2019-05-18T12:16:39.593Z,100674.13
2019-05-18T12:19:24.058Z,100657.87
2019-05-18T12:22:08.432Z,100654.73
2019-05-18T12:24:57.166Z,100645.87
2019-05-18T12:27:41.356Z,100665.81
2019-05-18T12:30:26.211Z,100651.07
2019-05-18T12:33:10.584Z,100653.99
2019-05-18T12:35:56.161Z,100666.81
2019-05-18T12:38:40.551Z,100646.56
2019-05-18T12:41:31.635Z,100638.42
2019-05-18T12:44:15.486Z,100640.03
2019-05-18T12:47:01.606Z,100667.36
2019-05-18T12:49:45.799Z,100661.59
2019-05-18T12:52:29.693Z,100644.70
2019-05-18T12:55:14.218Z,100651.93
2019-05-18T12:57:58.785Z,100655.78
2019-05-18T13:00:43.477Z,100643.48
2019-05-18T13:03:27.497Z,100635.75
2019-05-18T13:06:11.777Z,100661.94
2019-05-18T13:08:57.707Z,100669.02
2019-05-18T13:11:41.800Z,100633.59
2019-05-18T13:14:25.605Z,100631.69
2019-05-18T13:17:09.706Z,100652.67
2019-05-18T13:19:53.223Z,100625.65
2019-05-18T13:22:37.563Z,100626.14
2019-05-18T13:25:21.928Z,100622.36
2019-05-18T13:28:06.180Z,100631.43
2019-05-18T13:30:50.379Z,100633.94
2019-05-18T13:33:34.195Z,100637.48
2019-05-18T13:36:18.709Z,100658.41
2019-05-18T13:39:02.651Z,100633.63
2019-05-18T13:41:46.688Z,100626.56
2019-05-18T13:44:30.263Z,100625.34
2019-05-18T13:47:14.086Z,100640.63
2019-05-18T13:49:58.418Z,100647.13
2019-05-18T13:52:43.178Z,100649.41
2019-05-18T13:55:29.019Z,100635.14
2019-05-18T13:58:12.805Z,100626.30
2019-05-18T14:00:57.354Z,100636.20
2019-05-18T14:03:41.192Z,100613.14
2019-05-18T14:06:26.348Z,100615.03
2019-05-18T14:08:58.887Z,100630.22
2019-05-18T14:11:43.731Z,100606.44
2019-05-18T14:14:29.657Z,100625.08
2019-05-18T14:17:02.180Z,100623.86
2019-05-18T14:19:50.033Z,100628.95
2019-05-18T14:22:34.329Z,100610.23
2019-05-18T14:25:19.740Z,100614.38
2019-05-18T14:28:03.696Z,100614.30
2019-05-18T14:30:47.704Z,100638.54
2019-05-18T14:33:31.650Z,100633.33
2019-05-18T14:36:16.573Z,100610.52
2019-05-18T14:39:00.802Z,100604.17
2019-05-18T14:44:47.039Z,100621.41
2019-05-18T14:47:31.157Z,100621.73
2019-05-18T14:50:15.548Z,100603.66
2019-05-18T14:52:59.272Z,100623.31
2019-05-18T14:55:42.862Z,100623.21
2019-05-18T14:58:27.144Z,100623.34
2019-05-18T15:01:10.842Z,100623.80
2019-05-18T15:03:56.416Z,100624.62
2019-05-18T15:06:30.727Z,100624.41
2019-05-18T15:09:04.336Z,100611.38
2019-05-18T15:11:36.797Z,100613.53
2019-05-18T15:14:20.559Z,100587.19
2019-05-18T15:16:53.181Z,100620.13
2019-05-18T15:19:25.630Z,100607.64
2019-05-18T15:21:57.902Z,100599.14
2019-05-18T15:24:30.622Z,100609.00
2019-05-18T15:27:03.893Z,100613.28
2019-05-18T15:29:36.208Z,100616.45
2019-05-18T15:32:08.782Z,100608.52
2019-05-18T15:34:41.118Z,100605.49
2019-05-18T15:37:24.812Z,100608.37
2019-05-18T15:39:57.151Z,100607.62
2019-05-18T15:42:41.409Z,100605.45
2019-05-18T15:45:14.132Z,100611.11
2019-05-18T15:47:46.813Z,100610.02
2019-05-18T15:50:32.325Z,100584.99
2019-05-18T15:53:16.246Z,100583.08
2019-05-18T15:56:05.952Z,100585.91
2019-05-18T15:58:47.497Z,100606.45
2019-05-18T16:01:32.028Z,100583.59
2019-05-18T16:04:16.940Z,100574.14
2019-05-18T16:07:00.813Z,100578.37
2019-05-18T16:09:45.152Z,100592.69
2019-05-18T16:12:29.338Z,100588.02
2019-05-18T16:15:02.594Z,100607.63
2019-05-18T16:17:54.551Z,100601.22
2019-05-18T16:20:38.755Z,100597.42
2019-05-18T16:23:22.780Z,100572.45
2019-05-18T16:26:20.657Z,100571.52
2019-05-18T16:28:53.672Z,100574.58
2019-05-18T16:31:37.532Z,100577.81
2019-05-18T16:34:22.905Z,100600.05
2019-05-18T16:37:06.846Z,100596.99
2019-05-18T16:39:51.256Z,100595.59
2019-05-18T16:42:35.172Z,100585.86
2019-05-18T16:45:19.754Z,100596.94
2019-05-18T16:48:04.377Z,100579.92
2019-05-18T16:50:48.969Z,100576.77
2019-05-18T16:53:32.921Z,100586.83
2019-05-18T16:56:16.610Z,100606.55
2019-05-18T16:59:01.038Z,100611.23
2019-05-18T17:04:48.538Z,100608.83
2019-05-18T17:07:20.963Z,100614.47
2019-05-18T17:10:05.722Z,100617.10
2019-05-18T17:12:50.404Z,100600.09
2019-05-18T17:15:34.498Z,100623.52
2019-05-18T17:18:18.319Z,100598.16
2019-05-18T17:21:03.000Z,100605.58
2019-05-18T17:23:47.994Z,100622.84
2019-05-18T17:26:32.782Z,100610.02
2019-05-18T17:29:18.303Z,100628.66
2019-05-18T17:32:02.691Z,100607.69
2019-05-18T17:34:47.040Z,100628.56
2019-05-18T17:37:31.547Z,100632.80
2019-05-18T17:40:16.039Z,100614.84
2019-05-18T17:43:00.845Z,100643.52
2019-05-18T17:45:44.836Z,100620.09
2019-05-18T17:48:30.510Z,100619.05
2019-05-18T17:51:14.767Z,100615.40
2019-05-18T17:53:59.405Z,100638.53
2019-05-18T17:56:44.780Z,100623.01
2019-05-18T17:59:29.564Z,100636.67
2019-05-18T18:02:15.008Z,100615.62
2019-05-18T18:04:59.497Z,100621.92
2019-05-18T18:07:43.012Z,100646.45
2019-05-18T18:10:27.035Z,100632.03
2019-05-18T18:13:11.736Z,100625.55
2019-05-18T18:15:58.363Z,100644.88
2019-05-18T18:18:46.803Z,100628.29
2019-05-18T18:21:31.520Z,100650.30
2019-05-18T18:24:15.512Z,100650.09
2019-05-18T18:26:59.842Z,100648.36
2019-05-18T18:29:43.762Z,100632.25
2019-05-18T18:32:28.365Z,100638.31
2019-05-18T18:35:13.108Z,100639.58
2019-05-18T18:37:57.601Z,100639.84
2019-05-18T18:40:42.660Z,100649.67
2019-05-18T18:43:27.753Z,100651.97
2019-05-18T18:46:11.793Z,100651.37
2019-05-18T18:48:56.730Z,100670.98
2019-05-18T18:51:40.490Z,100674.80
2019-05-18T18:54:24.517Z,100649.39
2019-05-18T18:57:08.290Z,100667.66
2019-05-18T18:59:52.131Z,100660.39
2019-05-18T19:02:36.367Z,100670.77
2019-05-18T19:05:20.986Z,100671.72
2019-05-18T19:08:04.784Z,100664.20
2019-05-18T19:10:49.006Z,100664.42
2019-05-18T19:13:21.644Z,100682.59
2019-05-18T19:16:07.730Z,100671.53
2019-05-18T19:18:52.245Z,100683.66
2019-05-18T19:21:36.426Z,100691.24
2019-05-18T19:24:20.863Z,100695.10
2019-05-18T19:27:06.306Z,100684.39
2019-05-18T19:29:53.248Z,100701.48
2019-05-18T19:32:38.793Z,100687.25
2019-05-18T19:35:28.202Z,100686.16
2019-05-18T19:38:24.439Z,100707.20
2019-05-18T19:41:08.356Z,100707.17
2019-05-18T19:43:52.777Z,100691.84
2019-05-18T19:46:38.222Z,100711.55
2019-05-18T19:49:23.035Z,100701.75
2019-05-18T19:52:06.818Z,100725.30
2019-05-18T19:54:51.131Z,100703.17
2019-05-18T19:57:36.183Z,100728.50
2019-05-18T20:00:20.987Z,100705.51
2019-05-18T20:02:53.981Z,100726.56
2019-05-18T20:05:37.594Z,100704.73
2019-05-18T20:08:21.254Z,100702.61
2019-05-18T20:10:54.143Z,100724.60
2019-05-18T20:13:38.520Z,100702.34
2019-05-18T20:16:22.975Z,100711.62
2019-05-18T20:19:06.832Z,100704.91
2019-05-18T20:25:25.253Z,100729.53
2019-05-18T20:28:22.857Z,100710.21
2019-05-18T20:30:55.370Z,100730.05
2019-05-18T20:33:28.190Z,100736.14
2019-05-18T20:36:12.563Z,100716.08
2019-05-18T20:38:56.642Z,100737.49
2019-05-18T20:41:40.589Z,100738.17
2019-05-18T20:44:24.441Z,100720.55
2019-05-18T20:47:08.676Z,100738.59
2019-05-18T20:49:52.304Z,100740.54
2019-05-18T20:52:25.539Z,100744.72
2019-05-18T20:55:09.602Z,100727.94
2019-05-18T20:57:53.937Z,100718.09
2019-05-18T21:00:38.706Z,100745.88
2019-05-18T21:03:23.284Z,100743.68
2019-05-18T21:06:07.384Z,100720.47
2019-05-18T21:08:51.352Z,100731.80
2019-05-18T21:11:35.089Z,100725.08
2019-05-18T21:14:21.287Z,100723.01
2019-05-18T21:17:05.762Z,100742.10
2019-05-18T21:19:50.425Z,100747.83
2019-05-18T21:22:35.290Z,100731.21
2019-05-18T21:25:20.415Z,100736.06
2019-05-18T21:28:04.790Z,100728.55
2019-05-18T21:30:52.076Z,100753.19
2019-05-18T21:33:36.134Z,100748.23
2019-05-18T21:36:20.552Z,100750.91
2019-05-18T21:39:05.301Z,100725.11
2019-05-18T21:41:49.593Z,100733.98
2019-05-18T21:44:34.524Z,100736.80
2019-05-18T21:47:19.027Z,100759.69
2019-05-18T21:50:03.451Z,100735.58
2019-05-18T21:52:47.818Z,100756.44
2019-05-18T21:55:31.892Z,100733.05
2019-05-18T21:58:15.816Z,100758.92
2019-05-18T22:00:59.464Z,100735.33
2019-05-18T22:03:47.865Z,100739.59
2019-05-18T22:09:32.386Z,100740.31
2019-05-18T22:12:04.705Z,100759.66
2019-05-18T22:14:48.313Z,100737.09
2019-05-18T22:17:35.476Z,100755.37
2019-05-18T22:20:21.535Z,100729.92
2019-05-18T22:23:07.829Z,100742.50
2019-05-18T22:25:51.515Z,100729.67
2019-05-18T22:28:36.127Z,100749.54
2019-05-18T22:31:20.475Z,100722.87
2019-05-18T22:34:05.143Z,100739.24
2019-05-18T22:36:48.852Z,100717.78
2019-05-18T22:39:33.148Z,100739.45
2019-05-18T22:42:05.523Z,100741.42
2019-05-18T22:44:51.777Z,100718.58
2019-05-18T22:47:38.454Z,100745.78
2019-05-18T22:50:23.460Z,100716.58
2019-05-18T22:53:07.236Z,100718.70
2019-05-18T22:55:50.934Z,100740.42
2019-05-18T22:58:35.181Z,100737.81
2019-05-18T23:01:19.785Z,100715.17
2019-05-18T23:04:04.161Z,100714.85
2019-05-18T23:06:48.198Z,100717.39
2019-05-18T23:09:33.625Z,100712.39
2019-05-18T23:15:01.408Z,100711.63
2019-05-18T23:17:45.036Z,100724.30
2019-05-18T23:20:28.772Z,100725.17
2019-05-18T23:23:13.095Z,100704.33
2019-05-18T23:25:56.854Z,100698.77
2019-05-18T23:28:41.141Z,100716.16
2019-05-18T23:31:25.932Z,100693.33
2019-05-18T23:34:11.512Z,100716.72
2019-05-18T23:36:55.351Z,100712.48
2019-05-18T23:39:39.200Z,100707.89
2019-05-18T23:42:23.522Z,100699.10
2019-05-18T23:45:07.571Z,100704.83
2019-05-18T23:47:52.367Z,100685.61
2019-05-18T23:50:36.506Z,100682.61
2019-05-18T23:53:21.703Z,100698.37
2019-05-18T23:56:06.036Z,100675.16
2019-05-18T23:58:49.679Z,100672.89
